Time;durP1;ratioP1;P1;durP2;ratioP2;P2;SDS_P1;SDS_P2;PMS_P1;PMS_P2;Temp;Humidity;BMP_temperature;BMP_pressure;BME280_temperature;BME280_humidity;BME280_pressure;Samples;Min_cycle;Max_cycle;Signal;HPM_P1;HPM_P2
2022/12/10 00:02:06;;;;;;;38.13;13.20;;;;;;;;;;5041098;28;20423;-78
2022/12/10 00:04:39;;;;;;;34.88;13.85;;;;;;;;;;5039463;28;20430;-78
2022/12/10 00:07:12;;;;;;;39.50;14.68;;;;;;;;;;5040562;28;20430;-79
2022/12/10 00:09:39;;;;;;;37.38;14.10;;;;;;;;;;5036795;28;20438;-79
2022/12/10 00:12:09;;;;;;;36.33;13.68;;;;;;;;;;5037522;28;20426;-78
2022/12/10 00:14:41;;;;;;;35.15;13.88;;;;;;;;;;5055845;28;20440;-78
2022/12/10 00:17:14;;;;;;;39.78;14.27;;;;;;;;;;5045625;28;20461;-79
2022/12/10 00:19:47;;;;;;;36.83;14.17;;;;;;;;;;5042503;28;20462;-78
2022/12/10 00:22:15;;;;;;;35.40;13.33;;;;;;;;;;5037448;28;20443;-78
2022/12/10 00:24:43;;;;;;;39.70;13.68;;;;;;;;;;5037858;28;20445;-78
2022/12/10 00:27:17;;;;;;;31.58;13.30;;;;;;;;;;5045147;28;20427;-77
2022/12/10 00:29:44;;;;;;;32.57;13.07;;;;;;;;;;5070031;28;20439;-79
2022/12/10 00:32:17;;;;;;;35.10;13.75;;;;;;;;;;5038617;28;20437;-79
2022/12/10 00:34:50;;;;;;;33.50;13.10;;;;;;;;;;5038703;28;20425;-78
2022/12/10 00:37:23;;;;;;;34.22;13.30;;;;;;;;;;5070838;28;20450;-78
2022/12/10 00:39:51;;;;;;;33.85;13.55;;;;;;;;;;5037693;28;20419;-79
2022/12/10 00:42:25;;;;;;;34.35;13.00;;;;;;;;;;5053711;28;20442;-79
2022/12/10 00:44:52;;;;;;;30.77;12.57;;;;;;;;;;5071637;28;20430;-78
2022/12/10 00:47:20;;;;;;;32.83;12.68;;;;;;;;;;5037534;28;20907;-78
2022/12/10 00:49:48;;;;;;;30.48;12.70;;;;;;;;;;5037539;28;20432;-79
2022/12/10 00:52:16;;;;;;;25.42;11.00;;;;;;;;;;5038550;28;20927;-78
2022/12/10 00:54:44;;;;;;;28.40;11.88;;;;;;;;;;5039238;28;20407;-78
2022/12/10 00:57:17;;;;;;;29.07;11.27;;;;;;;;;;5034708;28;20771;-78
2022/12/10 00:59:46;;;;;;;29.17;11.73;;;;;;;;;;5037422;28;20418;-79
2022/12/10 01:02:19;;;;;;;23.70;10.65;;;;;;;;;;5044768;28;20423;-78
2022/12/10 01:04:47;;;;;;;25.98;10.93;;;;;;;;;;5070073;28;20780;-80
2022/12/10 01:07:19;;;;;;;27.00;10.97;;;;;;;;;;5037566;28;21039;-79
2022/12/10 01:09:52;;;;;;;24.40;10.45;;;;;;;;;;5042745;28;20417;-78
2022/12/10 01:12:25;;;;;;;25.30;10.40;;;;;;;;;;5045374;28;20431;-79
2022/12/10 01:14:59;;;;;;;23.77;10.23;;;;;;;;;;5042281;28;20429;-78
2022/12/10 01:17:27;;;;;;;21.42;9.20;;;;;;;;;;5042098;28;20455;-79
2022/12/10 01:19:59;;;;;;;22.07;9.30;;;;;;;;;;5041285;28;20417;-79
2022/12/10 01:22:32;;;;;;;18.25;7.93;;;;;;;;;;5040383;28;20450;-78
2022/12/10 01:25:05;;;;;;;17.38;8.27;;;;;;;;;;5040046;28;20425;-79
2022/12/10 01:27:39;;;;;;;21.77;9.13;;;;;;;;;;5067411;28;20422;-78
2022/12/10 01:30:13;;;;;;;20.30;9.32;;;;;;;;;;5071814;28;20430;-79
2022/12/10 01:32:41;;;;;;;22.02;10.00;;;;;;;;;;5043279;28;20917;-79
2022/12/10 01:35:14;;;;;;;19.88;9.10;;;;;;;;;;5039275;28;20434;-78
2022/12/10 01:37:48;;;;;;;19.92;9.27;;;;;;;;;;5071094;28;20425;-78
2022/12/10 01:40:15;;;;;;;21.40;9.02;;;;;;;;;;5039312;28;20760;-78
2022/12/10 01:42:48;;;;;;;20.37;9.10;;;;;;;;;;5039106;28;20429;-78
2022/12/10 01:45:23;;;;;;;20.92;9.43;;;;;;;;;;5058283;28;20998;-79
2022/12/10 01:47:55;;;;;;;21.40;9.63;;;;;;;;;;5046088;28;20785;-80
2022/12/10 01:50:28;;;;;;;23.10;9.57;;;;;;;;;;5037887;28;20432;-79
2022/12/10 01:52:57;;;;;;;23.60;10.55;;;;;;;;;;5072693;28;20426;-80
2022/12/10 01:55:39;;;;;;;23.25;9.52;;;;;;;;;;5040877;28;20436;-79
2022/12/10 01:58:07;;;;;;;19.52;8.90;;;;;;;;;;5042391;28;20417;-79
2022/12/10 02:00:39;;;;;;;21.33;9.13;;;;;;;;;;5072719;28;20429;-78
2022/12/10 02:03:11;;;;;;;19.10;9.10;;;;;;;;;;5071382;28;20500;-79
2022/12/10 02:05:41;;;;;;;19.30;8.50;;;;;;;;;;5040109;28;20426;-78
2022/12/10 02:08:17;;;;;;;19.70;8.45;;;;;;;;;;5056257;28;20421;-79
2022/12/10 02:10:51;;;;;;;17.95;7.85;;;;;;;;;;5072449;28;20425;-78
2022/12/10 02:13:28;;;;;;;17.00;8.02;;;;;;;;;;5041863;28;20415;-78
2022/12/10 02:16:05;;;;;;;18.75;8.15;;;;;;;;;;5032448;28;20419;-79
2022/12/10 02:18:40;;;;;;;17.42;7.72;;;;;;;;;;5043864;28;20794;-78
2022/12/10 02:21:15;;;;;;;19.17;8.48;;;;;;;;;;5040338;28;20418;-78
2022/12/10 02:23:46;;;;;;;18.52;8.27;;;;;;;;;;5045818;28;20431;-80
2022/12/10 02:26:16;;;;;;;18.23;8.43;;;;;;;;;;5041094;28;20421;-79
2022/12/10 02:28:52;;;;;;;22.77;9.65;;;;;;;;;;5071175;28;20433;-78
2022/12/10 02:31:30;;;;;;;20.95;9.02;;;;;;;;;;5055121;28;20429;-78
2022/12/10 02:34:00;;;;;;;18.98;9.35;;;;;;;;;;5047636;28;20429;-78
2022/12/10 02:36:34;;;;;;;19.50;8.90;;;;;;;;;;5073635;28;20433;-78
2022/12/10 02:39:10;;;;;;;20.40;8.90;;;;;;;;;;5071596;28;20429;-78
2022/12/10 02:41:52;;;;;;;20.67;8.27;;;;;;;;;;5044731;28;20426;-78
2022/12/10 02:44:21;;;;;;;20.33;8.70;;;;;;;;;;5072921;28;20433;-78
2022/12/10 02:46:51;;;;;;;19.95;8.68;;;;;;;;;;5040026;28;20435;-79
2022/12/10 02:49:21;;;;;;;18.02;8.15;;;;;;;;;;5046650;28;20432;-78
2022/12/10 02:51:54;;;;;;;19.73;8.75;;;;;;;;;;5047534;28;20427;-78
2022/12/10 02:54:37;;;;;;;20.80;9.25;;;;;;;;;;5059178;28;20437;-79
2022/12/10 02:57:09;;;;;;;20.67;8.95;;;;;;;;;;5040153;28;20419;-78
2022/12/10 02:59:50;;;;;;;19.80;9.13;;;;;;;;;;5072042;28;20415;-79
2022/12/10 03:02:26;;;;;;;22.17;10.15;;;;;;;;;;5040721;28;20420;-78
2022/12/10 03:05:01;;;;;;;22.02;9.75;;;;;;;;;;5039263;28;20822;-78
2022/12/10 03:07:36;;;;;;;19.65;9.10;;;;;;;;;;5036170;28;20771;-78
2022/12/10 03:10:07;;;;;;;24.13;10.43;;;;;;;;;;5035499;28;20426;-79
2022/12/10 03:12:43;;;;;;;23.77;9.80;;;;;;;;;;5035752;28;20428;-78
2022/12/10 03:15:17;;;;;;;23.90;10.27;;;;;;;;;;5039729;28;20433;-79
2022/12/10 03:17:48;;;;;;;25.35;10.48;;;;;;;;;;5036730;28;20426;-78
2022/12/10 03:20:17;;;;;;;28.77;10.90;;;;;;;;;;5039805;28;20771;-78
2022/12/10 03:22:46;;;;;;;23.85;9.80;;;;;;;;;;5039325;28;20419;-79
2022/12/10 03:25:22;;;;;;;24.70;10.50;;;;;;;;;;5068946;28;20442;-79
2022/12/10 03:27:56;;;;;;;25.08;10.80;;;;;;;;;;5046232;28;20431;-78
2022/12/10 03:30:24;;;;;;;24.75;10.30;;;;;;;;;;5038441;28;20423;-78
2022/12/10 03:32:58;;;;;;;26.02;10.80;;;;;;;;;;5065392;28;20449;-79
2022/12/10 03:35:32;;;;;;;25.10;10.70;;;;;;;;;;5055726;28;20429;-80
2022/12/10 03:38:05;;;;;;;27.45;11.00;;;;;;;;;;5037531;28;20445;-78
2022/12/10 03:40:33;;;;;;;28.83;11.88;;;;;;;;;;5055492;28;20437;-79
2022/12/10 03:43:01;;;;;;;26.17;10.67;;;;;;;;;;5040766;28;20419;-78
2022/12/10 03:45:33;;;;;;;26.42;11.63;;;;;;;;;;5071641;28;20433;-78
2022/12/10 03:48:08;;;;;;;26.02;11.50;;;;;;;;;;5053924;28;20442;-79
2022/12/10 03:50:41;;;;;;;24.73;10.53;;;;;;;;;;5037938;28;20427;-79
2022/12/10 03:53:14;;;;;;;25.38;10.80;;;;;;;;;;5038556;28;20434;-78
2022/12/10 03:55:47;;;;;;;24.05;10.38;;;;;;;;;;5038867;28;20449;-79
2022/12/10 03:58:15;;;;;;;27.80;10.25;;;;;;;;;;5038203;28;20772;-79
2022/12/10 04:00:43;;;;;;;27.33;11.25;;;;;;;;;;5041506;28;20438;-79
2022/12/10 04:03:17;;;;;;;26.48;11.30;;;;;;;;;;5069674;28;21225;-80
2022/12/10 04:05:50;;;;;;;26.92;11.73;;;;;;;;;;5042680;28;20425;-78
2022/12/10 04:08:23;;;;;;;27.48;12.30;;;;;;;;;;5040563;28;20759;-79
2022/12/10 04:10:55;;;;;;;25.13;11.38;;;;;;;;;;5036639;28;20441;-79
2022/12/10 04:16:27;;;;;;;28.60;11.13;;;;;;;;;;4984122;28;20442;-79
2022/12/10 04:19:03;;;;;;;25.38;10.68;;;;;;;;;;5038271;28;20433;-79
2022/12/10 04:27:19;;;;;;;28.52;11.48;;;;;;;;;;5035057;28;20425;-79
2022/12/10 04:29:52;;;;;;;26.40;11.68;;;;;;;;;;5037773;28;20429;-78
2022/12/10 04:32:26;;;;;;;27.80;11.48;;;;;;;;;;5044031;28;20438;-79
2022/12/10 04:35:00;;;;;;;28.33;11.63;;;;;;;;;;5042851;28;20917;-80
2022/12/10 04:37:33;;;;;;;27.75;11.52;;;;;;;;;;5039290;28;20786;-80
2022/12/10 04:40:06;;;;;;;28.20;11.85;;;;;;;;;;5039960;28;20422;-79
2022/12/10 04:42:34;;;;;;;26.83;10.98;;;;;;;;;;5038801;28;20413;-79
2022/12/10 04:45:07;;;;;;;25.23;10.93;;;;;;;;;;5043040;28;20887;-78
2022/12/10 04:47:40;;;;;;;26.65;11.45;;;;;;;;;;5033053;28;20419;-77
2022/12/10 04:50:09;;;;;;;28.30;11.13;;;;;;;;;;5041907;28;20419;-80
2022/12/10 04:52:42;;;;;;;25.75;10.90;;;;;;;;;;5043301;28;20907;-80
2022/12/10 04:55:10;;;;;;;25.08;10.70;;;;;;;;;;5040534;28;20431;-81
2022/12/10 04:57:37;;;;;;;23.60;10.95;;;;;;;;;;5042283;28;20472;-78
2022/12/10 05:00:11;;;;;;;27.88;11.40;;;;;;;;;;5033087;28;20417;-78
2022/12/10 05:02:44;;;;;;;23.25;10.52;;;;;;;;;;5047459;28;20943;-79
2022/12/10 05:05:13;;;;;;;25.30;10.82;;;;;;;;;;5041018;28;21423;-79
2022/12/10 05:07:41;;;;;;;24.13;11.30;;;;;;;;;;5039849;28;20418;-78
2022/12/10 05:10:09;;;;;;;28.05;11.25;;;;;;;;;;5040665;28;20858;-79
2022/12/10 05:12:37;;;;;;;28.23;11.43;;;;;;;;;;5047520;28;20429;-80
2022/12/10 05:15:05;;;;;;;25.50;11.70;;;;;;;;;;5041635;28;20421;-77
2022/12/10 05:17:38;;;;;;;27.90;11.60;;;;;;;;;;5044518;28;20438;-79
2022/12/10 05:20:12;;;;;;;26.80;11.02;;;;;;;;;;5040927;28;20438;-79
2022/12/10 05:25:31;;;;;;;26.75;11.68;;;;;;;;;;5041721;28;20436;-78
2022/12/10 05:28:04;;;;;;;28.48;11.70;;;;;;;;;;5041239;28;20421;-81
2022/12/10 05:30:37;;;;;;;28.63;11.23;;;;;;;;;;5039815;28;20431;-78
2022/12/10 05:33:05;;;;;;;24.80;10.65;;;;;;;;;;5073994;28;20425;-78
2022/12/10 05:35:39;;;;;;;24.65;10.50;;;;;;;;;;5038804;28;20428;-78
2022/12/10 05:38:12;;;;;;;25.45;10.77;;;;;;;;;;5041998;28;21038;-79
2022/12/10 05:40:40;;;;;;;23.10;9.75;;;;;;;;;;5039828;28;20426;-78
2022/12/10 05:43:12;;;;;;;24.70;10.57;;;;;;;;;;5041610;28;20900;-79
2022/12/10 05:45:45;;;;;;;24.33;10.32;;;;;;;;;;5058926;28;20765;-78
2022/12/10 05:48:18;;;;;;;19.80;9.30;;;;;;;;;;5038081;28;20503;-78
2022/12/10 05:50:52;;;;;;;23.10;9.87;;;;;;;;;;5040748;28;20425;-78
2022/12/10 05:53:25;;;;;;;23.97;9.63;;;;;;;;;;5042971;28;20425;-79
2022/12/10 05:56:01;;;;;;;25.47;9.73;;;;;;;;;;5041867;28;20449;-79
2022/12/10 05:58:29;;;;;;;24.30;9.50;;;;;;;;;;5068031;28;20458;-78
2022/12/10 06:01:06;;;;;;;22.98;9.98;;;;;;;;;;5040096;28;20454;-78
2022/12/10 06:03:34;;;;;;;23.03;9.67;;;;;;;;;;5041181;28;20434;-79
2022/12/10 06:06:08;;;;;;;25.13;10.45;;;;;;;;;;5038627;28;20436;-79
2022/12/10 06:08:37;;;;;;;21.30;9.43;;;;;;;;;;5037408;28;20908;-78
2022/12/10 06:11:10;;;;;;;22.83;9.75;;;;;;;;;;5042104;28;20421;-78
2022/12/10 06:13:38;;;;;;;23.85;9.88;;;;;;;;;;5043212;28;20437;-79
2022/12/10 06:16:07;;;;;;;22.60;8.93;;;;;;;;;;5042997;28;20791;-78
2022/12/10 06:18:40;;;;;;;23.05;9.20;;;;;;;;;;5041683;28;20429;-78
2022/12/10 06:21:15;;;;;;;25.37;10.20;;;;;;;;;;5073259;28;20431;-77
2022/12/10 06:23:48;;;;;;;24.65;10.15;;;;;;;;;;5036073;28;20428;-79
2022/12/10 06:26:23;;;;;;;24.83;10.30;;;;;;;;;;5071802;28;20429;-78
2022/12/10 06:28:57;;;;;;;24.98;10.45;;;;;;;;;;5035494;28;20437;-78
2022/12/10 06:31:30;;;;;;;21.23;9.25;;;;;;;;;;5038687;28;20429;-78
2022/12/10 06:33:57;;;;;;;22.70;10.23;;;;;;;;;;5041809;28;20898;-80
2022/12/10 06:36:27;;;;;;;26.75;10.50;;;;;;;;;;5044466;28;20415;-78
2022/12/10 06:38:54;;;;;;;24.45;10.18;;;;;;;;;;5039923;28;20462;-78
2022/12/10 06:41:27;;;;;;;24.20;10.00;;;;;;;;;;5040850;28;20432;-79
2022/12/10 06:43:58;;;;;;;26.73;11.07;;;;;;;;;;5038744;28;20427;-78
2022/12/10 06:46:26;;;;;;;22.92;9.27;;;;;;;;;;5041097;28;20430;-78
2022/12/10 06:48:59;;;;;;;25.60;10.15;;;;;;;;;;5045804;28;21055;-78
2022/12/10 06:51:28;;;;;;;24.75;10.32;;;;;;;;;;5043729;28;20436;-78
2022/12/10 06:54:01;;;;;;;23.55;9.60;;;;;;;;;;5037580;28;20434;-79
2022/12/10 06:56:33;;;;;;;23.58;9.85;;;;;;;;;;5042344;28;20429;-79
2022/12/10 06:59:07;;;;;;;22.83;9.67;;;;;;;;;;5050225;28;20475;-79
2022/12/10 07:01:39;;;;;;;23.02;9.95;;;;;;;;;;5036327;28;20434;-80
2022/12/10 07:04:12;;;;;;;23.15;9.90;;;;;;;;;;5042211;28;20776;-78
2022/12/10 07:06:41;;;;;;;23.05;9.43;;;;;;;;;;5072573;28;20429;-79
2022/12/10 07:09:14;;;;;;;22.08;9.18;;;;;;;;;;5039577;28;20439;-80
2022/12/10 07:11:47;;;;;;;21.63;9.25;;;;;;;;;;5035300;28;20423;-79
2022/12/10 07:14:20;;;;;;;20.38;9.13;;;;;;;;;;5036446;28;20434;-79
2022/12/10 07:16:53;;;;;;;21.85;9.15;;;;;;;;;;5026315;28;20448;-78
2022/12/10 07:19:25;;;;;;;24.77;9.65;;;;;;;;;;5021130;28;20425;-80
2022/12/10 07:21:55;;;;;;;22.13;9.07;;;;;;;;;;5023131;28;20435;-83
2022/12/10 07:24:22;;;;;;;21.55;9.38;;;;;;;;;;5019140;28;20425;-80
2022/12/10 07:26:55;;;;;;;23.27;9.63;;;;;;;;;;5029216;28;20414;-81
2022/12/10 07:29:28;;;;;;;19.75;8.43;;;;;;;;;;5022331;28;20414;-82
2022/12/10 07:32:02;;;;;;;20.42;9.02;;;;;;;;;;5019135;28;20433;-80
2022/12/10 07:34:47;;;;;;;19.38;8.55;;;;;;;;;;5023149;28;20463;-81
2022/12/10 07:37:16;;;;;;;20.85;8.80;;;;;;;;;;5019857;28;20421;-81
2022/12/10 07:39:49;;;;;;;21.15;8.77;;;;;;;;;;5022387;28;20433;-79
2022/12/10 07:42:22;;;;;;;20.67;8.57;;;;;;;;;;5022517;28;20448;-81
2022/12/10 07:44:50;;;;;;;22.38;9.35;;;;;;;;;;5023129;28;20444;-81
2022/12/10 07:47:17;;;;;;;24.85;9.52;;;;;;;;;;5023876;28;20441;-81
2022/12/10 07:49:45;;;;;;;22.90;9.50;;;;;;;;;;5028126;28;20421;-79
2022/12/10 07:52:20;;;;;;;22.90;8.85;;;;;;;;;;5029327;28;20440;-81
2022/12/10 07:54:47;;;;;;;21.85;8.85;;;;;;;;;;5050898;28;20422;-80
2022/12/10 07:57:16;;;;;;;19.73;8.18;;;;;;;;;;5021516;28;21823;-81
2022/12/10 07:59:43;;;;;;;20.40;9.00;;;;;;;;;;5024666;28;20436;-79
2022/12/10 08:02:16;;;;;;;21.10;8.60;;;;;;;;;;5026981;28;20429;-82
2022/12/10 08:04:44;;;;;;;21.27;8.85;;;;;;;;;;5022988;28;21276;-80
2022/12/10 08:07:12;;;;;;;20.35;8.82;;;;;;;;;;5020749;28;20437;-82
2022/12/10 08:09:46;;;;;;;19.58;8.20;;;;;;;;;;5018170;28;20437;-81
2022/12/10 08:12:13;;;;;;;20.77;9.05;;;;;;;;;;5020870;28;20421;-80
2022/12/10 08:14:47;;;;;;;21.30;8.85;;;;;;;;;;5018530;28;21993;-81
2022/12/10 08:17:19;;;;;;;21.20;8.57;;;;;;;;;;5020878;28;21178;-80
2022/12/10 08:19:54;;;;;;;19.30;8.20;;;;;;;;;;5019287;28;20974;-81
2022/12/10 08:22:27;;;;;;;21.40;8.65;;;;;;;;;;5027350;28;20437;-80
2022/12/10 08:24:56;;;;;;;19.52;8.38;;;;;;;;;;5025114;28;20436;-80
2022/12/10 08:27:28;;;;;;;22.27;8.75;;;;;;;;;;5026891;28;20440;-80
2022/12/10 08:29:56;;;;;;;22.83;9.30;;;;;;;;;;5026686;28;20437;-81
2022/12/10 08:32:24;;;;;;;20.30;8.35;;;;;;;;;;5026740;28;20432;-79
2022/12/10 08:34:57;;;;;;;22.45;9.60;;;;;;;;;;5023979;28;21221;-82
2022/12/10 08:37:29;;;;;;;23.02;10.05;;;;;;;;;;5022769;28;20434;-81
2022/12/10 08:40:05;;;;;;;22.85;9.40;;;;;;;;;;5029031;28;21097;-82
2022/12/10 08:42:32;;;;;;;20.98;8.95;;;;;;;;;;5027243;28;20991;-80
2022/12/10 08:45:01;;;;;;;25.98;10.65;;;;;;;;;;5026379;28;20413;-80
2022/12/10 08:47:34;;;;;;;19.35;8.82;;;;;;;;;;5053932;28;20425;-79
2022/12/10 08:50:07;;;;;;;20.50;9.75;;;;;;;;;;5012864;28;20822;-80
2022/12/10 08:52:40;;;;;;;20.85;9.45;;;;;;;;;;5032632;28;21159;-80
2022/12/10 08:55:14;;;;;;;20.55;9.65;;;;;;;;;;5025534;28;21777;-83
2022/12/10 08:57:47;;;;;;;19.60;8.07;;;;;;;;;;5018968;28;20433;-80
2022/12/10 09:00:20;;;;;;;18.02;8.05;;;;;;;;;;5023943;28;20506;-81
2022/12/10 09:02:53;;;;;;;18.17;8.30;;;;;;;;;;5021573;28;20437;-81
2022/12/10 09:05:22;;;;;;;20.02;7.93;;;;;;;;;;5020814;28;20433;-81
2022/12/10 09:07:55;;;;;;;21.47;8.63;;;;;;;;;;5030435;28;21170;-80
2022/12/10 09:10:29;;;;;;;20.10;8.57;;;;;;;;;;5026028;28;21010;-82
2022/12/10 09:12:57;;;;;;;18.52;8.23;;;;;;;;;;5025975;28;20433;-81
2022/12/10 09:15:30;;;;;;;19.08;8.18;;;;;;;;;;5026611;28;21004;-81
2022/12/10 09:17:58;;;;;;;19.88;8.15;;;;;;;;;;5021347;28;20436;-80
2022/12/10 09:20:31;;;;;;;17.98;7.65;;;;;;;;;;5029988;28;20432;-81
2022/12/10 09:22:59;;;;;;;20.30;8.57;;;;;;;;;;5025688;28;21075;-81
2022/12/10 09:25:33;;;;;;;19.10;8.35;;;;;;;;;;5023305;28;20421;-82
2022/12/10 09:28:01;;;;;;;18.40;8.25;;;;;;;;;;5022136;28;20441;-81
2022/12/10 09:30:29;;;;;;;18.63;7.78;;;;;;;;;;5030315;28;20436;-80
2022/12/10 09:33:02;;;;;;;17.52;7.70;;;;;;;;;;5023580;28;20433;-79
2022/12/10 09:35:35;;;;;;;19.05;7.55;;;;;;;;;;5022894;28;20437;-80
2022/12/10 09:38:07;;;;;;;19.83;9.02;;;;;;;;;;5023627;28;20452;-82
2022/12/10 09:40:46;;;;;;;20.57;8.67;;;;;;;;;;5024382;28;20433;-81
2022/12/10 09:43:17;;;;;;;21.05;9.13;;;;;;;;;;5023758;28;20829;-82
2022/12/10 09:45:51;;;;;;;19.73;8.95;;;;;;;;;;5028562;28;20409;-80
2022/12/10 09:48:28;;;;;;;19.63;8.20;;;;;;;;;;5022703;28;20941;-81
2022/12/10 09:50:58;;;;;;;17.83;8.07;;;;;;;;;;5024927;28;20440;-82
2022/12/10 09:53:32;;;;;;;19.92;8.38;;;;;;;;;;5020726;28;20421;-80
2022/12/10 09:56:11;;;;;;;19.05;8.07;;;;;;;;;;5026867;28;20430;-82
2022/12/10 09:58:44;;;;;;;19.37;8.77;;;;;;;;;;5022701;28;20425;-81
2022/12/10 10:01:15;;;;;;;20.13;8.38;;;;;;;;;;5032166;28;20436;-82
2022/12/10 10:03:48;;;;;;;19.40;8.63;;;;;;;;;;5022788;28;21095;-80
2022/12/10 10:06:17;;;;;;;18.17;8.23;;;;;;;;;;5022338;28;20437;-80
2022/12/10 10:08:52;;;;;;;31.33;13.50;;;;;;;;;;5018484;28;20429;-81
2022/12/10 10:11:28;;;;;;;19.40;9.07;;;;;;;;;;5026665;28;20433;-83
2022/12/10 10:14:04;;;;;;;20.60;10.85;;;;;;;;;;5027010;28;20425;-81
2022/12/10 10:16:40;;;;;;;20.27;8.98;;;;;;;;;;4997591;28;20452;-82
2022/12/10 10:19:13;;;;;;;18.20;8.15;;;;;;;;;;5021105;28;20437;-81
2022/12/10 10:21:43;;;;;;;21.73;10.60;;;;;;;;;;5020460;28;21153;-81
2022/12/10 10:24:16;;;;;;;29.92;13.13;;;;;;;;;;5018138;28;20436;-80
2022/12/10 10:26:52;;;;;;;22.67;9.77;;;;;;;;;;5019336;28;20421;-79
2022/12/10 10:29:20;;;;;;;22.58;10.52;;;;;;;;;;5019459;28;20425;-81
2022/12/10 10:32:08;;;;;;;16.57;7.50;;;;;;;;;;5022033;28;20425;-81
2022/12/10 10:34:39;;;;;;;15.45;7.10;;;;;;;;;;5019503;28;20444;-82
2022/12/10 10:37:17;;;;;;;17.40;7.25;;;;;;;;;;5021448;28;20429;-82
2022/12/10 10:39:48;;;;;;;14.95;6.68;;;;;;;;;;5021990;28;20436;-79
2022/12/10 10:42:26;;;;;;;16.73;7.35;;;;;;;;;;5027838;28;20421;-81
2022/12/10 10:44:59;;;;;;;17.65;7.80;;;;;;;;;;5023164;28;20440;-81
2022/12/10 10:47:29;;;;;;;14.60;6.93;;;;;;;;;;5028886;28;20424;-80
2022/12/10 10:50:03;;;;;;;16.27;7.03;;;;;;;;;;5024587;28;21078;-82
2022/12/10 10:52:37;;;;;;;16.42;7.15;;;;;;;;;;5023997;28;20436;-81
2022/12/10 10:55:30;;;;;;;15.60;6.97;;;;;;;;;;5028633;28;20440;-81
2022/12/10 10:58:05;;;;;;;14.90;6.93;;;;;;;;;;5025442;28;20430;-81
2022/12/10 11:00:37;;;;;;;15.43;6.88;;;;;;;;;;5028222;28;20455;-81
2022/12/10 11:03:06;;;;;;;14.82;6.93;;;;;;;;;;5022501;28;20433;-82
2022/12/10 11:05:39;;;;;;;14.57;6.45;;;;;;;;;;5017662;28;20440;-82
2022/12/10 11:08:17;;;;;;;15.68;6.75;;;;;;;;;;5023752;28;20429;-82
2022/12/10 11:10:48;;;;;;;13.73;6.35;;;;;;;;;;5027184;28;20955;-80
2022/12/10 11:13:23;;;;;;;14.82;6.57;;;;;;;;;;5022610;28;20430;-81
2022/12/10 11:15:56;;;;;;;17.27;6.60;;;;;;;;;;4998059;28;21314;-82
2022/12/10 11:18:34;;;;;;;14.38;6.63;;;;;;;;;;5020542;28;20542;-81
2022/12/10 11:21:04;;;;;;;15.13;7.03;;;;;;;;;;5022081;28;20460;-79
2022/12/10 11:23:39;;;;;;;18.08;8.23;;;;;;;;;;5023000;28;20429;-80
2022/12/10 11:26:22;;;;;;;20.90;8.60;;;;;;;;;;5024106;28;22382;-81
2022/12/10 11:29:06;;;;;;;15.30;7.20;;;;;;;;;;5018842;28;20909;-80
2022/12/10 11:31:42;;;;;;;16.65;7.07;;;;;;;;;;5019246;28;21598;-81
2022/12/10 11:34:12;;;;;;;16.45;7.78;;;;;;;;;;5018173;28;20437;-82
2022/12/10 11:36:46;;;;;;;15.75;7.15;;;;;;;;;;5022644;28;20979;-80
2022/12/10 11:39:22;;;;;;;17.90;7.23;;;;;;;;;;5023115;28;20501;-81
2022/12/10 11:41:53;;;;;;;17.25;7.60;;;;;;;;;;5044354;28;21288;-80
2022/12/10 11:44:32;;;;;;;16.50;7.13;;;;;;;;;;5039566;28;20868;-79
2022/12/10 11:47:07;;;;;;;15.52;6.93;;;;;;;;;;5038758;28;20401;-81
2022/12/10 11:49:43;;;;;;;20.60;7.90;;;;;;;;;;5041366;28;20429;-80
2022/12/10 11:52:16;;;;;;;17.15;7.57;;;;;;;;;;5042753;28;20422;-79
2022/12/10 11:54:50;;;;;;;18.95;8.35;;;;;;;;;;5047967;28;20438;-81
2022/12/10 11:57:26;;;;;;;14.52;6.28;;;;;;;;;;5041213;28;20435;-79
2022/12/10 12:00:01;;;;;;;16.98;6.95;;;;;;;;;;5046993;28;20427;-80
2022/12/10 12:02:45;;;;;;;15.38;7.00;;;;;;;;;;5042529;28;20429;-79
2022/12/10 12:05:22;;;;;;;14.23;6.47;;;;;;;;;;5036665;28;20442;-80
2022/12/10 12:07:54;;;;;;;17.05;7.57;;;;;;;;;;5040571;28;20395;-80
2022/12/10 12:10:45;;;;;;;16.90;6.35;;;;;;;;;;5038907;28;20429;-81
2022/12/10 12:13:15;;;;;;;16.05;6.95;;;;;;;;;;5040090;28;20419;-80
2022/12/10 12:15:50;;;;;;;17.45;7.25;;;;;;;;;;5043896;28;20429;-80
2022/12/10 12:18:21;;;;;;;15.00;6.72;;;;;;;;;;5070194;28;20463;-81
2022/12/10 12:20:55;;;;;;;17.48;7.18;;;;;;;;;;5040423;28;20415;-81
2022/12/10 12:23:30;;;;;;;15.63;6.53;;;;;;;;;;5055945;28;20810;-80
2022/12/10 12:26:05;;;;;;;15.18;6.32;;;;;;;;;;5045530;28;20422;-81
2022/12/10 12:28:39;;;;;;;15.48;6.60;;;;;;;;;;5052809;28;20430;-80
2022/12/10 12:31:10;;;;;;;17.47;6.73;;;;;;;;;;5040716;28;20421;-80
2022/12/10 12:33:42;;;;;;;18.08;7.68;;;;;;;;;;5038864;28;20443;-82
2022/12/10 12:36:13;;;;;;;16.70;6.83;;;;;;;;;;5069802;28;20430;-81
2022/12/10 12:38:44;;;;;;;15.93;6.78;;;;;;;;;;5045746;28;20455;-80
2022/12/10 12:41:17;;;;;;;15.80;6.65;;;;;;;;;;5042806;28;20429;-81
2022/12/10 12:43:52;;;;;;;17.30;7.07;;;;;;;;;;5039326;28;20781;-80
2022/12/10 12:46:29;;;;;;;16.60;6.95;;;;;;;;;;5041464;28;20426;-80
2022/12/10 12:48:59;;;;;;;16.20;6.97;;;;;;;;;;5041010;28;20418;-80
2022/12/10 12:51:33;;;;;;;16.65;6.88;;;;;;;;;;5053717;28;20437;-81
2022/12/10 12:54:06;;;;;;;16.23;6.88;;;;;;;;;;5038611;28;20440;-80
2022/12/10 12:56:42;;;;;;;16.42;6.93;;;;;;;;;;5034967;28;20474;-80
2022/12/10 12:59:12;;;;;;;18.40;8.18;;;;;;;;;;5028057;28;20419;-80
2022/12/10 13:01:50;;;;;;;16.52;6.93;;;;;;;;;;5045965;28;20448;-80
2022/12/10 13:04:23;;;;;;;13.77;5.82;;;;;;;;;;5047066;28;20459;-80
2022/12/10 13:07:05;;;;;;;15.70;6.78;;;;;;;;;;5043729;28;20426;-80
2022/12/10 13:09:33;;;;;;;16.67;7.30;;;;;;;;;;5048826;28;20431;-80
2022/12/10 13:12:16;;;;;;;16.02;7.15;;;;;;;;;;5045172;28;20436;-81
2022/12/10 13:15:03;;;;;;;16.65;7.07;;;;;;;;;;5041582;28;20423;-80
2022/12/10 13:17:34;;;;;;;17.10;6.38;;;;;;;;;;5041531;28;20421;-80
2022/12/10 13:20:21;;;;;;;15.57;6.95;;;;;;;;;;5074014;28;20425;-80
2022/12/10 13:22:55;;;;;;;14.50;6.30;;;;;;;;;;5046828;28;20434;-80
2022/12/10 13:25:38;;;;;;;14.27;6.53;;;;;;;;;;5071238;28;20434;-80
2022/12/10 13:28:22;;;;;;;14.02;6.20;;;;;;;;;;5037882;28;20405;-80
2022/12/10 13:31:18;;;;;;;16.05;6.50;;;;;;;;;;5047548;28;21082;-80
2022/12/10 13:33:50;;;;;;;13.45;5.75;;;;;;;;;;5054742;28;20513;-81
2022/12/10 13:36:22;;;;;;;15.32;6.18;;;;;;;;;;5039336;28;20431;-80
2022/12/10 13:38:56;;;;;;;14.93;6.45;;;;;;;;;;5071487;28;20438;-80
2022/12/10 13:44:32;;;;;;;14.93;5.90;;;;;;;;;;5039508;28;20427;-81
2022/12/10 13:47:06;;;;;;;16.58;6.50;;;;;;;;;;5040234;28;20417;-79
2022/12/10 13:49:49;;;;;;;15.00;6.60;;;;;;;;;;5046603;28;20421;-80
2022/12/10 13:52:25;;;;;;;15.57;6.63;;;;;;;;;;5039150;28;20442;-80
2022/12/10 13:55:25;;;;;;;17.25;6.70;;;;;;;;;;5075229;28;20435;-81
2022/12/10 13:58:14;;;;;;;15.43;6.10;;;;;;;;;;4996877;28;20971;-80
2022/12/10 14:00:50;;;;;;;15.20;6.32;;;;;;;;;;5042999;28;20434;-80
2022/12/10 14:03:40;;;;;;;16.23;6.13;;;;;;;;;;5044266;28;20455;-80
2022/12/10 14:06:16;;;;;;;15.95;6.57;;;;;;;;;;5054250;28;20430;-81
2022/12/10 14:08:58;;;;;;;14.25;6.22;;;;;;;;;;5039887;28;20433;-80
2022/12/10 14:11:32;;;;;;;17.15;6.57;;;;;;;;;;5044596;28;20423;-80
2022/12/10 14:14:01;;;;;;;15.68;6.50;;;;;;;;;;5056890;28;20440;-80
2022/12/10 14:16:31;;;;;;;16.50;6.43;;;;;;;;;;5070639;28;20425;-80
2022/12/10 14:19:01;;;;;;;15.47;6.60;;;;;;;;;;5045222;28;20421;-80
2022/12/10 14:21:36;;;;;;;14.30;6.13;;;;;;;;;;5040913;28;20427;-81
2022/12/10 14:24:04;;;;;;;16.40;6.30;;;;;;;;;;5038977;28;21009;-80
2022/12/10 14:26:37;;;;;;;14.27;6.10;;;;;;;;;;5036929;28;20445;-81
2022/12/10 14:29:18;;;;;;;20.55;7.90;;;;;;;;;;5041279;28;20785;-81
2022/12/10 14:31:48;;;;;;;16.05;6.28;;;;;;;;;;5055722;28;20428;-80
2022/12/10 14:34:18;;;;;;;14.93;6.40;;;;;;;;;;5046269;28;20411;-81
2022/12/10 14:36:53;;;;;;;18.02;6.75;;;;;;;;;;5073774;28;20437;-80
2022/12/10 14:39:27;;;;;;;15.10;6.30;;;;;;;;;;5038793;28;20425;-80
2022/12/10 14:41:57;;;;;;;13.47;5.90;;;;;;;;;;5042366;28;20421;-80
2022/12/10 14:44:30;;;;;;;16.48;6.50;;;;;;;;;;5040342;28;20437;-79
2022/12/10 14:47:04;;;;;;;15.57;6.25;;;;;;;;;;5037557;28;20431;-79
2022/12/10 14:49:32;;;;;;;15.27;6.45;;;;;;;;;;5030698;28;20428;-80
2022/12/10 14:52:02;;;;;;;17.70;7.05;;;;;;;;;;5021212;28;20425;-81
2022/12/10 14:54:35;;;;;;;14.98;6.38;;;;;;;;;;5016950;28;20444;-80
2022/12/10 14:57:05;;;;;;;16.23;6.82;;;;;;;;;;5022521;28;20437;-80
2022/12/10 14:59:40;;;;;;;17.47;7.10;;;;;;;;;;5020186;28;20534;-81
2022/12/10 15:02:17;;;;;;;14.95;6.13;;;;;;;;;;5023664;28;21845;-80
2022/12/10 15:04:50;;;;;;;15.93;6.65;;;;;;;;;;5014887;28;20456;-80
2022/12/10 15:07:25;;;;;;;16.55;6.40;;;;;;;;;;5019778;28;20428;-81
2022/12/10 15:09:54;;;;;;;18.33;7.40;;;;;;;;;;5013937;28;20429;-81
2022/12/10 15:12:30;;;;;;;15.68;6.80;;;;;;;;;;5024136;28;20422;-81
2022/12/10 15:15:06;;;;;;;16.33;6.70;;;;;;;;;;5017038;28;20437;-81